LFRZ/SNR METAR and TAF weather

Enter ICAO airport designator
Station Type Date Time Source
LFRZ METAR 2022/06/28 09:30 UTC NOAA

LFRZ 280930Z AUTO 21011KT 180V240 9999 FEW049 19/10 Q1020 NOSIG


Station Type Date Time Source
LFRZ Decoded METAR 2022/06/28 09:30 UTC NOAA

St-Nazaire, France (LFRZ) 47-19N 002-10W 4M
Jun 28, 2022 - 05:30 AM EDT / 2022.06.28 0930 UTC
Wind: from the SSW (210 degrees) at 13 MPH (11 KT) (direction variable):0
Visibility: greater than 7 mile(s):0
Sky conditions: mostly clear
Temperature: 66 F (19 C)
Dew Point: 50 F (10 C)
Relative Humidity: 55%
Pressure (altimeter): 30.12 in. Hg (1020 hPa)
ob: LFRZ 280930Z AUTO 21011KT 180V240 9999 FEW049 19/10 Q1020 NOSIG
cycle: 9

Station Type Date Time Source
LFRZ TAF 2022/06/28 06:22 UTC NOAA

TAF LFRZ 280500Z 2806/2906 07006KT CAVOK
BECMG 2807/2809 22010KT
TEMPO 2902/2906 3000 RA BKN010

Example: see airport list